Myra, Kentucky
Current Conditions -  °F | °C
As of 2:35 PM on Thursday 30 Oct 2014 (Local Time) from KPBX Reporting Station
Broken Clouds Broken Clouds  
Wind Chill: 45°   Ceiling: 3200
Heat Index: 47°   Visibility: 10mi
Dew Point: 35°   Wind: 6mph
Humidity: 61%   Direction: 310°NW
Pressure: 30.09"   Gusts: NA
Location:  37.29°N, 82.6°W
Report Text: KPBX 301835Z AUTO 31005KT 10SM BKN032 09/01 A3009 RMK AO2 T00860014
Loading
Personal Weather Stations






























Interactive Weather Map
Tropical Storm Tracking
New forecast layout! Learn more

10-Day Weather Forecast

Advertisements
Track Severe Weather on mobile